Time;durP1;ratioP1;P1;durP2;ratioP2;P2;SDS_P1;SDS_P2;PMS_P1;PMS_P2;Temp;Humidity;BMP_temperature;BMP_pressure;BME280_temperature;BME280_humidity;BME280_pressure;Samples;Min_cycle;Max_cycle;Signal;HPM_P1;HPM_P2
2023/12/17 00:00:49;;;;;;;9.77;6.18;;;10.00;99.90;;;;;;5019772;27;88061;-33
2023/12/17 00:03:15;;;;;;;7.40;5.45;;;10.00;99.90;;;;;;5019440;27;90848;-30
2023/12/17 00:05:41;;;;;;;5.43;4.93;;;10.00;99.90;;;;;;5019098;28;89939;-31
2023/12/17 00:08:06;;;;;;;8.90;5.63;;;10.00;99.90;;;;;;5019270;28;90852;-30
2023/12/17 00:10:32;;;;;;;6.82;4.82;;;10.00;99.90;;;;;;5019491;28;89402;-30
2023/12/17 00:12:57;;;;;;;8.50;5.85;;;10.00;99.90;;;;;;5018447;27;90302;-33
2023/12/17 00:15:23;;;;;;;8.30;5.32;;;10.00;99.90;;;;;;5018749;28;90227;-29
2023/12/17 00:17:48;;;;;;;10.10;5.50;;;10.00;99.90;;;;;;5019341;28;89668;-32
2023/12/17 00:20:14;;;;;;;11.00;5.45;;;10.00;99.90;;;;;;5018408;27;89238;-31
2023/12/17 00:22:39;;;;;;;10.02;5.47;;;10.00;99.90;;;;;;5018701;28;90488;-30
2023/12/17 00:25:05;;;;;;;6.65;4.95;;;10.00;99.90;;;;;;5018772;28;89624;-33
2023/12/17 00:27:31;;;;;;;5.65;4.95;;;10.00;99.90;;;;;;5018529;27;89244;-31
2023/12/17 00:29:57;;;;;;;10.68;5.63;;;10.00;99.90;;;;;;5018983;27;87600;-30
2023/12/17 00:32:22;;;;;;;13.80;6.28;;;10.00;99.90;;;;;;5018327;27;91020;-31
2023/12/17 00:34:48;;;;;;;9.82;6.03;;;10.00;99.90;;;;;;5018839;27;89623;-30
2023/12/17 00:37:14;;;;;;;7.63;4.90;;;10.00;99.90;;;;;;5017958;28;90122;-30
2023/12/17 00:39:39;;;;;;;13.30;6.57;;;10.00;99.90;;;;;;5018930;28;88994;-30
2023/12/17 00:42:05;;;;;;;9.55;6.00;;;10.00;99.90;;;;;;5018853;28;90485;-28
2023/12/17 00:44:30;;;;;;;9.35;7.82;;;10.00;99.90;;;;;;5017188;28;89694;-30
2023/12/17 00:46:56;;;;;;;10.10;6.05;;;10.00;99.90;;;;;;5018942;28;89465;-30
2023/12/17 00:49:21;;;;;;;6.22;4.25;;;10.00;99.90;;;;;;5018906;27;87881;-31
2023/12/17 00:51:47;;;;;;;7.63;5.70;;;10.00;99.90;;;;;;5019094;27;89981;-30
2023/12/17 00:54:13;;;;;;;9.23;5.55;;;10.00;99.90;;;;;;5018474;28;89610;-30
2023/12/17 00:56:38;;;;;;;9.63;5.80;;;10.00;99.90;;;;;;5016821;28;89354;-30
2023/12/17 00:59:04;;;;;;;6.65;5.88;;;10.00;99.90;;;;;;5018864;28;88450;-28
2023/12/17 01:01:29;;;;;;;10.55;6.13;;;10.00;99.90;;;;;;5017598;28;90036;-31
2023/12/17 01:03:55;;;;;;;6.47;5.15;;;10.00;99.90;;;;;;5018048;28;90459;-33
2023/12/17 01:06:21;;;;;;;18.17;4.68;;;10.00;99.90;;;;;;5019496;27;90439;-31
2023/12/17 01:08:46;;;;;;;8.10;4.70;;;10.00;99.90;;;;;;5021803;27;87671;-29
2023/12/17 01:11:12;;;;;;;6.68;4.30;;;10.00;99.90;;;;;;5021277;28;91321;-30
2023/12/17 01:13:37;;;;;;;9.20;5.40;;;10.00;99.90;;;;;;5021658;28;90001;-28
2023/12/17 01:16:04;;;;;;;6.43;5.13;;;10.00;99.90;;;;;;5021683;28;90888;-30
2023/12/17 01:18:30;;;;;;;9.10;4.75;;;10.00;99.90;;;;;;5021433;27;87944;-30
2023/12/17 01:20:58;;;;;;;11.15;6.43;;;10.00;99.90;;;;;;5021816;28;90556;-31
2023/12/17 01:23:23;;;;;;;10.82;5.75;;;9.90;99.90;;;;;;5022262;28;90438;-30
2023/12/17 01:25:49;;;;;;;9.07;4.38;;;10.00;99.90;;;;;;5021546;28;87718;-31
2023/12/17 01:28:15;;;;;;;7.07;5.03;;;10.00;99.90;;;;;;5021720;27;89644;-33
2023/12/17 01:30:40;;;;;;;19.27;4.82;;;9.90;99.90;;;;;;5020650;27;90654;-32
2023/12/17 01:33:06;;;;;;;10.07;6.10;;;10.00;99.90;;;;;;5021374;28;90239;-30
2023/12/17 01:35:31;;;;;;;13.50;4.88;;;9.90;99.90;;;;;;5020817;28;89926;-30
2023/12/17 01:37:57;;;;;;;9.52;5.00;;;9.90;99.90;;;;;;5021539;27;88862;-30
2023/12/17 01:40:23;;;;;;;6.97;4.47;;;10.00;99.90;;;;;;5021525;28;90260;-31
2023/12/17 01:42:52;;;;;;;7.57;5.32;;;9.90;99.90;;;;;;5021180;28;89767;-30
2023/12/17 01:45:17;;;;;;;8.68;4.53;;;9.90;99.90;;;;;;5020931;27;89513;-30
2023/12/17 01:47:43;;;;;;;5.80;3.78;;;9.90;99.90;;;;;;5021835;28;88470;-30
2023/12/17 01:50:09;;;;;;;9.50;6.05;;;9.90;99.90;;;;;;5020360;27;90287;-32
2023/12/17 01:52:35;;;;;;;8.48;4.47;;;10.00;99.90;;;;;;5021089;27;89811;-31
2023/12/17 01:55:01;;;;;;;9.68;6.13;;;9.90;99.90;;;;;;5020976;27;90016;-32
2023/12/17 01:57:27;;;;;;;22.60;6.22;;;9.90;99.90;;;;;;5021185;28;89804;-29
2023/12/17 01:59:53;;;;;;;7.15;5.38;;;10.00;99.90;;;;;;5021175;27;89255;-28
2023/12/17 02:02:18;;;;;;;6.93;6.22;;;9.90;99.90;;;;;;5021156;27;89692;-31
2023/12/17 02:04:44;;;;;;;9.00;5.28;;;10.00;99.90;;;;;;5020926;28;89535;-32
2023/12/17 02:07:10;;;;;;;7.72;4.50;;;10.00;99.90;;;;;;5021216;27;88725;-31
2023/12/17 02:09:35;;;;;;;7.72;5.35;;;10.00;99.90;;;;;;5020958;28;89928;-30
2023/12/17 02:12:01;;;;;;;8.65;5.45;;;10.00;99.90;;;;;;5021068;28;90468;-32
2023/12/17 02:14:27;;;;;;;7.80;5.25;;;10.00;99.90;;;;;;5021001;28;89776;-32
2023/12/17 02:16:52;;;;;;;12.23;5.72;;;10.00;99.90;;;;;;5021152;27;89180;-30
2023/12/17 02:19:18;;;;;;;7.53;5.88;;;10.00;99.90;;;;;;5020143;28;91723;-29
2023/12/17 02:21:43;;;;;;;7.90;4.53;;;10.00;99.90;;;;;;5021003;28;89769;-32
2023/12/17 02:24:09;;;;;;;11.30;5.75;;;10.00;99.90;;;;;;5020382;27;89811;-29
2023/12/17 02:26:35;;;;;;;7.65;4.88;;;10.00;99.90;;;;;;5021179;27;88249;-30
2023/12/17 02:29:00;;;;;;;8.50;4.72;;;10.00;99.90;;;;;;5020332;28;90219;-30
2023/12/17 02:31:26;;;;;;;13.70;6.25;;;10.00;99.90;;;;;;5019773;28;89646;-31
2023/12/17 02:33:51;;;;;;;7.47;6.40;;;10.00;99.90;;;;;;5020909;28;88981;-30
2023/12/17 02:36:17;;;;;;;8.98;5.90;;;10.00;99.90;;;;;;5020488;27;88450;-30
2023/12/17 02:38:43;;;;;;;9.23;6.00;;;10.00;99.90;;;;;;5020341;27;89728;-34
2023/12/17 02:41:08;;;;;;;11.77;5.57;;;10.00;99.90;;;;;;5020929;28;90764;-28
2023/12/17 02:43:34;;;;;;;10.65;5.40;;;10.00;99.90;;;;;;5020069;28;89991;-31
2023/12/17 02:46:00;;;;;;;14.57;5.68;;;10.00;99.90;;;;;;5020602;28;88094;-31
2023/12/17 02:48:25;;;;;;;11.65;5.90;;;10.00;99.90;;;;;;5020326;28;90033;-33
2023/12/17 02:50:51;;;;;;;9.30;6.80;;;10.00;99.90;;;;;;5020589;28;89655;-31
2023/12/17 02:53:16;;;;;;;6.85;4.90;;;10.00;99.90;;;;;;5019955;28;91464;-30
2023/12/17 02:55:42;;;;;;;8.95;5.95;;;10.00;99.90;;;;;;5020467;27;89708;-30
2023/12/17 02:58:07;;;;;;;10.70;7.50;;;10.00;99.90;;;;;;5020288;28;91654;-32
2023/12/17 03:00:33;;;;;;;9.82;6.50;;;10.00;99.90;;;;;;5019917;28;89883;-29
2023/12/17 03:02:59;;;;;;;8.90;6.07;;;9.90;99.90;;;;;;5020379;28;89101;-32
2023/12/17 03:05:24;;;;;;;9.32;6.35;;;10.00;99.90;;;;;;5019464;28;89818;-32
2023/12/17 03:07:50;;;;;;;7.97;5.72;;;10.00;99.90;;;;;;5020393;28;90103;-31
2023/12/17 03:10:15;;;;;;;13.85;6.72;;;9.90;99.90;;;;;;5019727;27;90359;-33
2023/12/17 03:12:41;;;;;;;10.02;5.97;;;9.90;99.90;;;;;;5019845;27;90088;-29
2023/12/17 03:15:07;;;;;;;12.13;7.75;;;9.90;99.90;;;;;;5019478;28;88906;-30
2023/12/17 03:17:35;;;;;;;12.10;7.35;;;9.90;99.90;;;;;;5018327;28;89838;-30
2023/12/17 03:20:04;;;;;;;8.82;6.60;;;9.90;99.90;;;;;;5006683;28;90231;-29
2023/12/17 03:22:30;;;;;;;11.80;6.53;;;9.90;99.90;;;;;;5020295;27;87924;-31
2023/12/17 03:24:56;;;;;;;8.30;5.88;;;9.90;99.90;;;;;;5020442;27;89763;-31
2023/12/17 03:27:22;;;;;;;10.32;7.07;;;9.90;99.90;;;;;;5019426;27;89940;-29
2023/12/17 03:29:48;;;;;;;11.55;7.20;;;9.90;99.90;;;;;;5019216;27;90704;-31
2023/12/17 03:32:15;;;;;;;8.90;5.50;;;9.90;99.90;;;;;;5018639;28;90435;-30
2023/12/17 03:34:41;;;;;;;8.95;6.93;;;9.90;99.90;;;;;;5019832;27;89805;-33
2023/12/17 03:37:06;;;;;;;8.15;5.60;;;9.90;99.90;;;;;;5017568;28;91916;-32
2023/12/17 03:39:32;;;;;;;18.33;6.28;;;9.90;99.90;;;;;;5019707;27;89930;-33
2023/12/17 03:41:58;;;;;;;9.38;6.53;;;9.90;99.90;;;;;;5019706;28;89421;-30
2023/12/17 03:44:23;;;;;;;14.05;7.68;;;9.90;99.90;;;;;;5020414;28;88483;-31
2023/12/17 03:46:49;;;;;;;14.48;6.80;;;9.90;99.90;;;;;;5019771;28;89048;-30
2023/12/17 03:49:14;;;;;;;9.68;7.35;;;9.90;99.90;;;;;;5018959;28;91189;-30
2023/12/17 03:51:40;;;;;;;7.50;5.95;;;9.90;99.90;;;;;;5019380;28;89557;-31
2023/12/17 03:54:05;;;;;;;11.18;7.80;;;9.90;99.90;;;;;;5018858;27;89400;-32
2023/12/17 03:56:31;;;;;;;8.20;7.18;;;9.90;99.90;;;;;;5017643;28;89236;-30
2023/12/17 03:58:57;;;;;;;8.13;5.82;;;9.90;99.90;;;;;;5019301;27;89258;-30
2023/12/17 04:01:23;;;;;;;8.60;6.32;;;9.90;99.90;;;;;;5018544;28;89508;-30
2023/12/17 04:03:48;;;;;;;10.88;5.72;;;10.00;99.90;;;;;;5019706;28;89721;-29
2023/12/17 04:06:14;;;;;;;11.13;7.07;;;9.90;99.90;;;;;;5019567;28;90877;-30
2023/12/17 04:08:39;;;;;;;8.80;5.78;;;9.90;99.90;;;;;;5019014;28;90007;-31
2023/12/17 04:11:05;;;;;;;13.40;6.55;;;10.00;99.90;;;;;;5017401;28;89685;-30
2023/12/17 04:13:31;;;;;;;12.25;6.25;;;10.00;99.90;;;;;;5019393;27;90253;-29
2023/12/17 04:15:56;;;;;;;9.02;5.70;;;10.00;99.90;;;;;;5018777;28;90162;-31
2023/12/17 04:18:22;;;;;;;10.63;6.50;;;10.00;99.90;;;;;;5017014;28;90297;-30
2023/12/17 04:20:48;;;;;;;9.13;5.95;;;10.00;99.90;;;;;;5018538;28;90386;-30
2023/12/17 04:23:14;;;;;;;6.63;4.45;;;10.00;99.90;;;;;;5018974;28;90114;-30
2023/12/17 04:25:39;;;;;;;9.63;6.35;;;10.00;99.90;;;;;;5018662;27;90392;-29
2023/12/17 04:28:05;;;;;;;9.57;5.85;;;10.00;99.90;;;;;;5019328;27;90052;-32
2023/12/17 04:30:31;;;;;;;7.82;5.07;;;10.00;99.90;;;;;;5018486;28;89670;-32
2023/12/17 04:32:56;;;;;;;10.77;6.10;;;9.90;99.90;;;;;;5018835;28;89050;-31
2023/12/17 04:35:22;;;;;;;9.82;6.25;;;9.90;99.90;;;;;;5018760;28;90291;-29
2023/12/17 04:37:47;;;;;;;10.80;6.47;;;9.90;99.90;;;;;;5017845;28;89355;-31
2023/12/17 04:40:14;;;;;;;10.13;6.15;;;9.90;99.90;;;;;;5019362;27;89784;-30
2023/12/17 04:42:40;;;;;;;7.22;5.53;;;9.90;99.90;;;;;;5021628;27;90655;-30
2023/12/17 04:45:06;;;;;;;9.23;7.13;;;9.90;99.90;;;;;;5022426;28;90357;-32
2023/12/17 04:47:32;;;;;;;9.40;7.03;;;9.90;99.90;;;;;;5022055;27;90961;-29
2023/12/17 04:49:57;;;;;;;6.13;4.85;;;9.90;99.90;;;;;;5021554;27;89404;-30
2023/12/17 04:52:23;;;;;;;7.82;5.55;;;9.90;99.90;;;;;;5022894;27;89904;-29
2023/12/17 04:54:49;;;;;;;11.18;7.60;;;9.90;99.90;;;;;;5021674;28;90365;-30
2023/12/17 04:57:14;;;;;;;12.52;6.72;;;9.90;99.90;;;;;;5022631;27;89397;-30
2023/12/17 04:59:41;;;;;;;7.95;5.93;;;9.90;99.90;;;;;;5022693;28;88848;-29
2023/12/17 05:02:06;;;;;;;11.65;6.80;;;9.90;99.90;;;;;;5021671;27;88507;-31
2023/12/17 05:04:32;;;;;;;7.93;6.00;;;9.90;99.90;;;;;;5022446;27;90286;-30
2023/12/17 05:06:58;;;;;;;17.25;6.78;;;9.90;99.90;;;;;;5020540;28;91034;-32
2023/12/17 05:09:23;;;;;;;17.13;6.43;;;9.90;99.90;;;;;;5022474;27;90857;-31
2023/12/17 05:11:49;;;;;;;12.25;7.90;;;9.90;99.90;;;;;;5021768;27;88104;-30
2023/12/17 05:14:15;;;;;;;15.25;8.55;;;9.90;99.90;;;;;;5021562;28;90059;-34
2023/12/17 05:16:41;;;;;;;10.40;5.93;;;9.90;99.90;;;;;;5021961;27;90360;-30
2023/12/17 05:19:09;;;;;;;18.45;6.43;;;9.80;99.90;;;;;;5021192;27;89204;-31
2023/12/17 05:21:35;;;;;;;10.47;5.70;;;9.80;99.90;;;;;;5021205;27;89220;-33
2023/12/17 05:24:02;;;;;;;8.50;5.72;;;9.80;99.90;;;;;;5022267;27;89202;-31
2023/12/17 05:26:28;;;;;;;9.53;7.50;;;9.80;99.90;;;;;;5021586;27;89315;-29
2023/12/17 05:28:54;;;;;;;10.45;6.00;;;9.80;99.90;;;;;;5021304;27;89804;-29
2023/12/17 05:31:19;;;;;;;11.57;7.18;;;9.80;99.90;;;;;;5021000;28;90432;-31
2023/12/17 05:33:46;;;;;;;11.73;7.07;;;9.80;99.90;;;;;;5021285;27;90426;-31
2023/12/17 05:36:12;;;;;;;8.10;6.72;;;9.80;99.90;;;;;;5015897;27;90570;-30
2023/12/17 05:38:37;;;;;;;8.93;6.30;;;9.80;99.90;;;;;;5021762;27;89487;-29
2023/12/17 05:41:04;;;;;;;10.55;6.55;;;9.80;99.90;;;;;;5021627;27;87839;-30
2023/12/17 05:43:30;;;;;;;15.50;8.07;;;9.80;99.90;;;;;;5021214;27;90101;-31
2023/12/17 05:45:55;;;;;;;9.73;6.70;;;9.80;99.90;;;;;;5020769;27;89248;-31
2023/12/17 05:48:21;;;;;;;9.90;6.78;;;9.80;99.90;;;;;;5022071;27;89868;-29
2023/12/17 05:50:47;;;;;;;9.07;6.43;;;9.80;99.90;;;;;;5021675;28;89757;-30
2023/12/17 05:53:13;;;;;;;12.65;6.25;;;9.80;99.90;;;;;;5021055;27;90445;-31
2023/12/17 05:55:38;;;;;;;9.65;6.72;;;9.80;99.90;;;;;;5020613;27;90502;-29
2023/12/17 05:58:04;;;;;;;8.40;5.47;;;9.80;99.90;;;;;;5020806;28;90584;-30
2023/12/17 06:00:30;;;;;;;9.35;6.30;;;9.80;99.90;;;;;;5021833;27;89458;-32
2023/12/17 06:02:55;;;;;;;9.88;6.03;;;9.80;99.90;;;;;;5020763;27;90044;-31
2023/12/17 06:05:21;;;;;;;10.07;6.50;;;9.80;99.90;;;;;;5021373;28;89485;-33
2023/12/17 06:07:47;;;;;;;8.80;5.30;;;9.70;99.90;;;;;;5020759;28;89887;-30
2023/12/17 06:10:12;;;;;;;10.95;6.93;;;9.80;99.90;;;;;;5020918;27;89403;-31
2023/12/17 06:12:38;;;;;;;11.45;7.35;;;9.70;99.90;;;;;;5021426;27;88421;-32
2023/12/17 06:15:05;;;;;;;5.88;5.15;;;9.70;99.90;;;;;;5020676;28;88946;-30
2023/12/17 06:17:31;;;;;;;7.82;6.57;;;9.70;99.90;;;;;;5021453;27;89572;-33
2023/12/17 06:19:56;;;;;;;10.40;6.20;;;9.70;99.90;;;;;;5020930;28;88864;-31
2023/12/17 06:22:24;;;;;;;6.03;5.35;;;9.70;99.90;;;;;;5020764;28;88856;-30
2023/12/17 06:24:50;;;;;;;5.70;5.00;;;9.70;99.90;;;;;;5020709;28;89750;-33
2023/12/17 06:27:16;;;;;;;6.55;5.15;;;9.70;99.90;;;;;;5020780;27;89964;-30
2023/12/17 06:29:42;;;;;;;8.20;5.20;;;9.60;99.90;;;;;;5020658;28;87846;-29
2023/12/17 06:32:07;;;;;;;7.10;5.38;;;9.70;99.90;;;;;;5020461;27;90512;-29
2023/12/17 06:34:34;;;;;;;11.68;5.18;;;9.60;99.90;;;;;;5020217;28;89775;-29
2023/12/17 06:37:00;;;;;;;6.40;5.07;;;9.60;99.90;;;;;;5020151;27;90032;-30
2023/12/17 06:39:26;;;;;;;9.32;5.13;;;9.60;99.90;;;;;;5020900;28;89169;-30
2023/12/17 06:41:52;;;;;;;9.52;5.15;;;9.60;99.90;;;;;;5020983;27;90444;-30
2023/12/17 06:44:17;;;;;;;10.00;5.85;;;9.60;99.90;;;;;;5019922;28;92349;-31
2023/12/17 06:46:43;;;;;;;9.50;5.55;;;9.60;99.90;;;;;;5018956;28;91483;-31
2023/12/17 06:49:09;;;;;;;10.50;5.35;;;9.50;99.90;;;;;;5020531;27;88913;-32
2023/12/17 06:51:39;;;;;;;7.90;6.15;;;9.50;99.90;;;;;;5019274;28;90456;-31
2023/12/17 06:54:06;;;;;;;6.60;5.38;;;9.60;99.90;;;;;;5020206;27;89015;-30
2023/12/17 06:56:31;;;;;;;12.60;6.28;;;9.50;99.90;;;;;;5019965;27;89483;-30
2023/12/17 06:58:57;;;;;;;7.22;5.65;;;9.50;99.90;;;;;;5020143;28;90255;-31
2023/12/17 07:01:22;;;;;;;13.48;5.93;;;9.50;99.90;;;;;;5020842;28;90148;-31
2023/12/17 07:03:49;;;;;;;9.60;6.75;;;9.50;99.90;;;;;;5018881;27;89622;-28
2023/12/17 07:06:14;;;;;;;12.35;6.88;;;9.50;99.90;;;;;;5020746;28;90247;-30
2023/12/17 07:08:41;;;;;;;9.02;6.18;;;9.50;99.90;;;;;;5019462;28;89013;-29
2023/12/17 07:11:07;;;;;;;12.68;7.88;;;9.50;99.90;;;;;;5017917;28;90421;-32
2023/12/17 07:13:33;;;;;;;11.60;8.05;;;9.50;99.90;;;;;;5020489;27;90708;-31
2023/12/17 07:15:58;;;;;;;8.38;7.07;;;9.50;99.90;;;;;;5019721;28;89589;-29
2023/12/17 07:18:24;;;;;;;9.93;7.07;;;9.50;99.90;;;;;;5020574;27;88131;-31
2023/12/17 07:20:50;;;;;;;8.63;7.03;;;9.50;99.90;;;;;;5019613;28;90569;-31
2023/12/17 07:23:16;;;;;;;11.02;7.47;;;9.40;99.90;;;;;;5019556;27;89773;-32
2023/12/17 07:25:41;;;;;;;11.85;6.70;;;9.40;99.90;;;;;;5019851;28;89580;-30
2023/12/17 07:28:07;;;;;;;8.30;6.10;;;9.40;99.90;;;;;;5019467;28;89802;-33
2023/12/17 07:30:33;;;;;;;10.63;7.28;;;9.40;99.90;;;;;;5019897;28;90287;-30
2023/12/17 07:32:59;;;;;;;10.93;7.05;;;9.40;99.90;;;;;;5017598;27;90250;-30
2023/12/17 07:35:26;;;;;;;11.73;5.72;;;9.40;99.90;;;;;;5019718;28;90506;-33
2023/12/17 07:37:52;;;;;;;9.90;6.82;;;9.40;99.90;;;;;;5041153;22;90746;-30
2023/12/17 07:40:17;;;;;;;9.95;7.00;;;9.40;99.90;;;;;;4998203;28;90219;-30
2023/12/17 07:42:43;;;;;;;10.13;8.07;;;9.40;99.90;;;;;;4997290;28;89718;-30
2023/12/17 07:45:09;;;;;;;13.80;6.88;;;9.40;99.90;;;;;;4996522;28;89560;-32
2023/12/17 07:47:35;;;;;;;9.15;6.55;;;9.40;99.90;;;;;;5000392;28;88726;-30
2023/12/17 07:50:00;;;;;;;9.20;6.95;;;9.30;99.90;;;;;;4999028;28;90461;-30
2023/12/17 07:52:26;;;;;;;11.18;6.78;;;9.30;99.90;;;;;;4998647;28;89655;-30
2023/12/17 07:54:53;;;;;;;11.52;6.88;;;9.30;99.90;;;;;;4999820;28;90199;-34
2023/12/17 07:57:19;;;;;;;9.98;6.72;;;9.40;99.90;;;;;;4981392;28;89748;-29
2023/12/17 07:59:46;;;;;;;15.30;7.93;;;9.40;99.90;;;;;;4998114;28;90366;-31
2023/12/17 08:02:14;;;;;;;6.50;5.50;;;9.30;99.90;;;;;;4999117;28;88132;-28
2023/12/17 08:04:41;;;;;;;12.07;7.77;;;9.30;99.90;;;;;;4999158;28;91529;-29
2023/12/17 08:07:09;;;;;;;9.90;6.85;;;9.30;99.90;;;;;;4999253;28;90165;-31
2023/12/17 08:09:35;;;;;;;11.75;7.25;;;9.40;99.90;;;;;;4998575;28;89929;-29
2023/12/17 08:12:01;;;;;;;10.30;6.25;;;9.40;99.90;;;;;;4998995;28;89406;-32
2023/12/17 08:14:28;;;;;;;11.63;7.05;;;9.30;99.90;;;;;;4994920;28;90134;-29
2023/12/17 08:16:53;;;;;;;12.32;8.35;;;9.40;99.90;;;;;;4989605;28;88521;-32
2023/12/17 08:19:19;;;;;;;12.75;7.57;;;9.30;99.90;;;;;;4997033;28;90200;-29
2023/12/17 08:21:45;;;;;;;9.20;7.43;;;9.30;99.90;;;;;;4994867;28;90468;-32
2023/12/17 08:24:11;;;;;;;10.50;7.82;;;9.40;99.90;;;;;;4994499;28;90258;-31
2023/12/17 08:26:36;;;;;;;15.82;7.40;;;9.40;99.90;;;;;;4996570;28;88419;-29
2023/12/17 08:29:02;;;;;;;15.13;8.35;;;9.40;99.90;;;;;;4995527;28;90235;-32
2023/12/17 08:31:28;;;;;;;11.75;8.00;;;9.40;99.90;;;;;;4996738;28;89903;-31
2023/12/17 08:33:53;;;;;;;16.20;8.50;;;9.30;99.90;;;;;;4996060;28;90267;-34
2023/12/17 08:36:20;;;;;;;16.35;9.00;;;9.30;99.90;;;;;;4996085;28;89895;-29
2023/12/17 08:38:45;;;;;;;13.23;8.02;;;9.40;99.90;;;;;;4995567;28;89081;-29
2023/12/17 08:41:12;;;;;;;12.18;7.90;;;9.40;99.90;;;;;;4996174;28;89474;-33
2023/12/17 08:43:38;;;;;;;11.85;8.25;;;9.40;99.90;;;;;;4996213;28;89586;-28
2023/12/17 08:46:04;;;;;;;14.90;8.05;;;9.40;99.90;;;;;;4995747;28;90295;-29
2023/12/17 08:48:29;;;;;;;11.55;6.78;;;9.30;99.90;;;;;;4996141;28;90424;-32
2023/12/17 08:50:55;;;;;;;12.23;6.40;;;9.40;99.90;;;;;;4994974;28;90244;-29
2023/12/17 08:53:23;;;;;;;11.82;7.15;;;9.30;99.90;;;;;;4996010;28;89826;-31
2023/12/17 08:55:49;;;;;;;12.13;8.07;;;9.30;99.90;;;;;;4996137;28;88158;-31
2023/12/17 08:58:16;;;;;;;8.25;5.82;;;9.30;99.90;;;;;;4995161;28;89285;-30
2023/12/17 09:00:42;;;;;;;7.85;5.00;;;9.30;99.90;;;;;;4990814;28;89244;-30
2023/12/17 09:03:07;;;;;;;9.38;5.72;;;9.40;99.90;;;;;;4996211;28;89592;-28
2023/12/17 09:05:35;;;;;;;12.20;5.57;;;9.40;99.90;;;;;;4995435;28;88933;-32
2023/12/17 09:08:01;;;;;;;7.68;5.43;;;9.40;99.90;;;;;;4994717;28;90362;-32
2023/12/17 09:10:27;;;;;;;7.88;4.93;;;9.40;99.90;;;;;;4976686;28;90496;-32
2023/12/17 09:12:54;;;;;;;7.45;4.82;;;9.40;99.90;;;;;;4994005;28;90774;-32
2023/12/17 09:15:20;;;;;;;6.40;4.18;;;9.40;99.90;;;;;;4995286;28;89650;-29
2023/12/17 09:17:46;;;;;;;6.95;4.35;;;9.40;99.90;;;;;;4995910;28;90074;-31
2023/12/17 09:20:13;;;;;;;7.00;4.32;;;9.40;99.90;;;;;;4993852;28;89275;-31
2023/12/17 09:22:40;;;;;;;8.60;4.63;;;9.40;99.90;;;;;;4995264;28;89609;-30
2023/12/17 09:25:06;;;;;;;12.07;5.68;;;9.40;99.90;;;;;;4995544;28;88858;-32
2023/12/17 09:27:32;;;;;;;8.68;5.10;;;9.40;99.90;;;;;;4996347;28;89800;-30
2023/12/17 09:29:57;;;;;;;13.48;4.20;;;9.50;99.90;;;;;;4998689;28;89625;-32
2023/12/17 09:32:23;;;;;;;10.43;5.25;;;9.50;99.90;;;;;;4998818;28;90323;-30
2023/12/17 09:34:48;;;;;;;5.97;4.35;;;9.40;99.90;;;;;;4998251;28;90325;-30
2023/12/17 09:37:14;;;;;;;7.28;4.93;;;9.50;99.90;;;;;;4992219;28;90294;-30
2023/12/17 09:39:40;;;;;;;7.82;6.07;;;9.50;99.90;;;;;;4977503;28;88877;-30
2023/12/17 09:42:06;;;;;;;10.70;5.70;;;9.50;99.90;;;;;;4974621;28;88953;-31
2023/12/17 09:44:32;;;;;;;5.45;4.05;;;9.50;99.90;;;;;;4979272;28;88512;-32
2023/12/17 09:46:58;;;;;;;8.45;4.30;;;9.50;99.90;;;;;;4978680;28;90198;-31
2023/12/17 09:49:23;;;;;;;5.93;4.43;;;9.50;99.90;;;;;;4977683;28;91004;-31
2023/12/17 09:51:58;;;;;;;11.10;5.07;;;9.50;99.90;;;;;;4981979;28;88787;-29
2023/12/17 09:54:24;;;;;;;12.93;4.90;;;9.60;99.90;;;;;;4984463;28;89492;-31
2023/12/17 09:56:52;;;;;;;13.23;5.68;;;9.50;99.90;;;;;;4984119;28;90648;-30
2023/12/17 09:59:18;;;;;;;13.70;6.32;;;9.60;99.90;;;;;;4996438;28;90740;-31
2023/12/17 10:01:44;;;;;;;12.77;7.22;;;9.60;99.90;;;;;;4998322;28;90328;-30
2023/12/17 10:04:09;;;;;;;9.10;6.43;;;9.60;99.90;;;;;;4997173;28;89297;-32
2023/12/17 10:06:35;;;;;;;13.30;5.55;;;9.60;99.90;;;;;;4987482;28;90007;-31
2023/12/17 10:09:01;;;;;;;17.10;9.07;;;9.60;99.90;;;;;;4993935;28;90029;-29
2023/12/17 10:11:27;;;;;;;14.52;9.00;;;9.60;99.90;;;;;;4989943;28;92151;-33
2023/12/17 10:13:53;;;;;;;14.13;10.60;;;9.60;99.90;;;;;;4984700;28;89913;-34
2023/12/17 10:16:21;;;;;;;13.20;8.77;;;9.60;99.90;;;;;;4993878;28;89290;-30
2023/12/17 10:18:50;;;;;;;;;;;9.60;99.90;;;;;;4986974;28;89781;-30
2023/12/17 10:21:15;;;;;;;;;;;9.60;99.90;;;;;;4995660;28;89808;-33
2023/12/17 10:23:48;;;;;;;13.15;9.38;;;9.60;99.90;;;;;;4992164;28;90453;-31
2023/12/17 10:26:14;;;;;;;13.15;8.75;;;9.60;99.90;;;;;;4985455;28;89813;-30
2023/12/17 10:28:46;;;;;;;18.92;11.13;;;9.60;99.90;;;;;;4983863;28;91239;-30
2023/12/17 10:31:15;;;;;;;21.27;12.13;;;9.60;99.90;;;;;;4979733;28;89359;-32
2023/12/17 10:33:50;;;;;;;16.27;10.48;;;9.60;99.90;;;;;;4989108;28;88310;-30
2023/12/17 10:36:16;;;;;;;16.40;10.70;;;9.60;99.90;;;;;;4994834;28;90736;-28
2023/12/17 10:38:42;;;;;;;23.80;10.98;;;9.60;99.90;;;;;;4989979;28;89692;-32
2023/12/17 10:41:09;;;;;;;15.85;10.65;;;9.60;99.90;;;;;;4980254;28;89479;-30
2023/12/17 10:43:36;;;;;;;23.40;13.25;;;9.60;99.90;;;;;;4985819;28;90030;-32
2023/12/17 10:46:01;;;;;;;20.45;11.55;;;9.60;99.90;;;;;;4996384;28;90656;-30
2023/12/17 10:48:27;;;;;;;23.70;13.27;;;9.60;99.90;;;;;;4985732;28;91806;-34
2023/12/17 10:50:54;;;;;;;18.70;12.02;;;9.60;99.90;;;;;;4983192;28;90598;-34
2023/12/17 10:53:20;;;;;;;20.23;12.82;;;9.60;99.90;;;;;;4980054;28;89531;-32
2023/12/17 10:55:46;;;;;;;21.58;12.43;;;9.60;99.90;;;;;;4977779;28;90170;-31
2023/12/17 10:58:17;;;;;;;23.05;12.98;;;9.60;99.90;;;;;;4973118;28;88529;-31
2023/12/17 11:00:43;;;;;;;22.48;11.05;;;9.60;99.90;;;;;;4973715;28;90024;-30
2023/12/17 11:03:10;;;;;;;19.50;11.95;;;9.60;99.90;;;;;;4986589;28;88720;-28
2023/12/17 11:05:37;;;;;;;13.60;10.55;;;9.60;99.90;;;;;;4994351;28;90887;-29
2023/12/17 11:08:03;;;;;;;19.15;11.85;;;9.60;99.90;;;;;;4995052;28;90078;-32
2023/12/17 11:10:36;;;;;;;17.48;10.38;;;9.60;99.90;;;;;;4994901;28;90087;-32
2023/12/17 11:13:01;;;;;;;15.93;7.97;;;9.60;99.90;;;;;;4993105;28;90122;-28
2023/12/17 11:15:27;;;;;;;13.82;8.35;;;9.60;99.90;;;;;;4995283;28;90062;-32
2023/12/17 11:17:53;;;;;;;12.85;9.70;;;9.70;99.90;;;;;;4994601;28;89854;-34
2023/12/17 11:20:19;;;;;;;12.13;7.75;;;9.60;99.90;;;;;;4996586;28;89795;-32
2023/12/17 11:22:46;;;;;;;20.27;9.80;;;9.70;99.90;;;;;;4997872;28;88114;-28
2023/12/17 11:25:11;;;;;;;11.13;7.85;;;9.70;99.90;;;;;;4995752;28;91167;-30
2023/12/17 11:27:39;;;;;;;14.75;8.90;;;9.70;99.90;;;;;;4996172;28;90048;-29
2023/12/17 11:30:32;;;;;;;12.90;7.97;;;9.70;99.90;;;;;;4997624;28;90163;-30
2023/12/17 11:32:59;;;;;;;11.05;8.52;;;9.70;99.90;;;;;;4995807;28;88476;-34
2023/12/17 11:35:27;;;;;;;12.52;8.68;;;9.70;99.90;;;;;;4997255;28;90311;-31
2023/12/17 11:37:53;;;;;;;11.73;7.27;;;9.70;99.90;;;;;;4996237;28;89319;-31
2023/12/17 11:40:19;;;;;;;12.98;9.50;;;9.70;99.90;;;;;;4994995;28;90452;-33
2023/12/17 11:43:02;;;;;;;15.30;9.05;;;9.70;99.90;;;;;;4986842;28;88220;-31
2023/12/17 11:45:33;;;;;;;12.32;7.68;;;9.70;99.90;;;;;;4996672;28;90022;-31
2023/12/17 11:48:10;;;;;;;12.80;9.15;;;9.70;99.90;;;;;;4995975;28;91407;-30
2023/12/17 11:50:56;;;;;;;14.88;10.23;;;9.70;99.90;;;;;;4995687;28;89837;-29
2023/12/17 11:53:23;;;;;;;14.77;9.02;;;9.70;99.90;;;;;;4990924;28;88700;-31
2023/12/17 11:55:55;;;;;;;14.15;9.25;;;9.70;99.90;;;;;;4996320;28;90421;-31
2023/12/17 11:58:22;;;;;;;17.92;10.68;;;9.70;99.90;;;;;;4995721;28;89188;-31
2023/12/17 12:01:09;;;;;;;12.93;9.25;;;9.60;99.90;;;;;;4996147;28;90095;-29
2023/12/17 12:03:39;;;;;;;17.88;10.48;;;9.60;99.90;;;;;;4995643;28;89782;-30
2023/12/17 12:06:08;;;;;;;18.92;10.88;;;9.70;99.90;;;;;;4995884;28;91240;-28
2023/12/17 12:08:34;;;;;;;18.40;9.48;;;9.60;99.90;;;;;;4996043;28;89609;-29
2023/12/17 12:11:03;;;;;;;19.88;12.18;;;9.60;99.90;;;;;;4994953;28;89590;-29
2023/12/17 12:13:40;;;;;;;20.38;9.82;;;9.60;99.90;;;;;;4995668;28;89409;-28
2023/12/17 12:16:07;;;;;;;15.57;10.63;;;9.60;99.90;;;;;;4995936;28;89971;-32
2023/12/17 12:18:33;;;;;;;17.10;9.77;;;9.60;99.90;;;;;;4994846;28;89417;-29
2023/12/17 12:20:59;;;;;;;20.05;11.10;;;9.60;99.90;;;;;;4995660;28;89670;-32
2023/12/17 12:23:24;;;;;;;20.17;10.60;;;9.60;99.90;;;;;;4996259;28;88118;-29
2023/12/17 12:25:55;;;;;;;19.90;10.20;;;9.60;99.90;;;;;;4993590;28;91217;-30
2023/12/17 12:28:21;;;;;;;20.63;12.40;;;9.60;99.90;;;;;;4995448;28;90355;-30
2023/12/17 12:30:47;;;;;;;21.98;13.45;;;9.60;99.90;;;;;;4994986;28;90907;-28
2023/12/17 12:33:20;;;;;;;23.55;13.35;;;9.60;99.90;;;;;;4976911;28;88794;-31
2023/12/17 12:35:48;;;;;;;18.40;12.35;;;9.60;99.90;;;;;;4995051;28;90535;-31
2023/12/17 12:38:23;;;;;;;23.10;14.87;;;9.60;99.90;;;;;;4994433;28;89247;-33
2023/12/17 12:40:50;;;;;;;26.88;14.10;;;9.60;99.90;;;;;;4994688;28;89230;-30
2023/12/17 12:43:17;;;;;;;21.60;13.40;;;9.60;99.90;;;;;;4995206;28;88062;-30